Time;durP1;ratioP1;P1;durP2;ratioP2;P2;SDS_P1;SDS_P2;PMS_P1;PMS_P2;Temp;Humidity;BMP_temperature;BMP_pressure;BME280_temperature;BME280_humidity;BME280_pressure;Samples;Min_cycle;Max_cycle;Signal;HPM_P1;HPM_P2
2022/12/27 00:02:14;;;;;;;6.03;3.45;;;;;;;-4.37;60.59;100771.16;5071888;28;20028;-55
2022/12/27 00:04:40;;;;;;;4.80;2.75;;;;;;;-4.15;59.85;100758.00;5071410;28;20107;-51
2022/12/27 00:07:06;;;;;;;3.47;1.88;;;;;;;-3.94;59.46;100778.81;5071485;28;20025;-52
2022/12/27 00:09:31;;;;;;;6.88;3.95;;;;;;;-4.19;59.29;100772.84;5071805;28;20406;-54
2022/12/27 00:11:57;;;;;;;5.90;3.75;;;;;;;-4.49;60.76;100754.66;5071948;28;20116;-56
2022/12/27 00:14:23;;;;;;;5.35;3.65;;;;;;;-4.54;60.82;100759.03;5072227;28;20024;-53
2022/12/27 00:16:48;;;;;;;5.43;4.22;;;;;;;-4.50;60.72;100760.75;5071745;28;20901;-50
2022/12/27 00:19:14;;;;;;;7.35;3.95;;;;;;;-4.39;60.76;100781.66;5071234;28;20056;-53
2022/12/27 00:21:39;;;;;;;3.85;2.60;;;;;;;-4.43;60.90;100773.81;5071440;28;20048;-50
2022/12/27 00:24:05;;;;;;;5.25;3.42;;;;;;;-4.43;60.53;100768.56;5071524;28;20403;-50
2022/12/27 00:26:33;;;;;;;4.88;3.80;;;;;;;-4.56;61.54;100768.63;5071677;28;20037;-55
2022/12/27 00:28:59;;;;;;;9.05;4.22;;;;;;;-4.50;61.30;100758.16;5071730;28;20091;-52
2022/12/27 00:31:27;;;;;;;6.88;4.05;;;;;;;-4.43;60.97;100771.19;5071811;28;20062;-52
2022/12/27 00:33:55;;;;;;;6.32;3.35;;;;;;;-4.42;61.34;100780.78;5071476;28;20028;-52
2022/12/27 00:36:23;;;;;;;8.35;3.78;;;;;;;-4.39;60.88;100759.84;5071504;28;20029;-53
2022/12/27 00:38:49;;;;;;;5.30;3.72;;;;;;;-4.41;60.80;100762.47;5071725;28;20028;-53
2022/12/27 00:41:16;;;;;;;10.02;3.47;;;;;;;-4.27;60.59;100756.31;5071602;28;20044;-52
2022/12/27 00:43:42;;;;;;;4.57;3.28;;;;;;;-4.33;60.17;100759.84;5071202;28;20039;-49
2022/12/27 00:46:08;;;;;;;6.50;3.50;;;;;;;-4.41;61.38;100757.25;5070940;28;20051;-49
2022/12/27 00:48:34;;;;;;;4.95;3.55;;;;;;;-4.35;60.60;100758.94;5071592;28;20032;-55
2022/12/27 00:51:01;;;;;;;6.97;4.10;;;;;;;-4.33;60.88;100755.47;5071276;28;20025;-53
2022/12/27 00:53:30;;;;;;;4.68;3.10;;;;;;;-4.23;60.58;100738.00;5075374;28;20033;-48
2022/12/27 00:55:56;;;;;;;7.53;4.18;;;;;;;-4.33;60.56;100738.94;5075479;28;20040;-52
2022/12/27 00:58:22;;;;;;;7.68;3.50;;;;;;;-4.38;60.29;100736.31;5074986;28;20044;-50
2022/12/27 01:00:48;;;;;;;4.65;3.45;;;;;;;-4.39;60.98;100705.81;5074940;28;20038;-49
2022/12/27 01:03:14;;;;;;;5.03;3.33;;;;;;;-4.45;60.46;100690.19;5075359;28;20036;-50
2022/12/27 01:05:40;;;;;;;5.40;3.15;;;;;;;-4.44;61.30;100705.00;5074673;28;20127;-52
2022/12/27 01:08:05;;;;;;;4.72;3.22;;;;;;;-4.42;60.97;100698.00;5074393;28;20086;-51
2022/12/27 01:10:32;;;;;;;4.45;3.00;;;;;;;-4.20;60.98;100697.91;5075381;28;20047;-52
2022/12/27 01:12:59;;;;;;;4.63;3.10;;;;;;;-4.25;60.76;100695.28;5075197;28;20024;-52
2022/12/27 01:15:25;;;;;;;4.55;3.10;;;;;;;-4.27;60.88;100696.16;5074536;28;20032;-53
2022/12/27 01:17:50;;;;;;;4.90;2.70;;;;;;;-4.26;61.22;100690.94;5074692;28;20040;-53
2022/12/27 01:20:16;;;;;;;4.43;2.90;;;;;;;-4.38;60.66;100667.47;5074266;28;20123;-53
2022/12/27 01:22:41;;;;;;;3.40;2.65;;;;;;;-4.21;60.47;100702.25;5074440;28;20098;-52
2022/12/27 01:25:07;;;;;;;3.30;2.78;;;;;;;-4.30;60.89;100693.56;5074459;28;20040;-54
2022/12/27 01:27:32;;;;;;;4.82;3.00;;;;;;;-4.32;60.81;100678.75;5073708;28;20051;-51
2022/12/27 01:29:58;;;;;;;3.72;2.67;;;;;;;-4.22;60.53;100684.81;5074658;28;20127;-53
2022/12/27 01:32:23;;;;;;;5.93;3.17;;;;;;;-4.28;61.16;100677.00;5074298;28;20093;-54
2022/12/27 01:34:50;;;;;;;4.95;3.15;;;;;;;-4.34;61.18;100658.72;5074384;28;20361;-52
2022/12/27 01:37:15;;;;;;;3.10;2.80;;;;;;;-4.28;61.30;100671.78;5074213;28;20067;-52
2022/12/27 01:39:41;;;;;;;5.30;2.80;;;;;;;-4.24;61.89;100649.97;5074008;28;20064;-56
2022/12/27 01:44:59;;;;;;;6.32;2.30;;;;;;;-3.93;60.32;100670.66;5074263;28;20033;-56
2022/12/27 01:47:39;;;;;;;4.95;3.20;;;;;;;-4.11;61.21;100649.88;5073828;28;20349;-54
2022/12/27 01:50:07;;;;;;;4.32;3.20;;;;;;;-4.04;60.60;100648.97;5074854;28;20440;-55
2022/12/27 01:52:37;;;;;;;8.38;3.70;;;;;;;-3.97;60.36;100653.25;5073581;28;20040;-54
2022/12/27 01:55:13;;;;;;;4.78;3.38;;;;;;;-4.19;61.32;100656.03;5074043;28;20039;-53
2022/12/27 01:57:40;;;;;;;7.07;3.67;;;;;;;-4.19;61.05;100668.25;5073374;28;20033;-52
2022/12/27 02:00:06;;;;;;;5.03;3.35;;;;;;;-4.23;60.79;100648.19;5074313;28;20095;-61
2022/12/27 02:02:32;;;;;;;5.22;3.60;;;;;;;-4.42;61.04;100614.34;5074326;28;20124;-53
2022/12/27 02:04:57;;;;;;;4.47;3.42;;;;;;;-4.18;61.04;100662.13;5073172;28;20492;-54
2022/12/27 02:07:30;;;;;;;7.03;4.30;;;;;;;-4.33;61.55;100645.66;5073633;28;20033;-54
2022/12/27 02:09:58;;;;;;;7.55;4.63;;;;;;;-4.33;61.89;100635.19;5074229;28;20531;-53
2022/12/27 02:12:24;;;;;;;7.15;4.43;;;;;;;-4.24;61.48;100633.38;5072229;28;20020;-53
2022/12/27 02:14:50;;;;;;;5.97;3.70;;;;;;;-3.99;61.02;100633.22;5073464;28;20036;-52
2022/12/27 02:17:24;;;;;;;7.35;4.68;;;;;;;-4.09;61.06;100619.38;5073534;28;20043;-52
2022/12/27 02:20:15;;;;;;;8.38;5.40;;;;;;;-4.06;61.12;100627.19;5073488;28;20121;-49
2022/12/27 02:25:56;;;;;;;10.25;5.70;;;;;;;-4.23;61.50;100630.78;5073346;28;20028;-51
2022/12/27 02:28:43;;;;;;;6.63;4.05;;;;;;;-4.14;61.36;100618.50;5073390;28;20047;-50
2022/12/27 02:31:19;;;;;;;10.48;4.68;;;;;;;-4.11;61.79;100616.75;5072954;28;20060;-54
2022/12/27 02:33:47;;;;;;;9.10;5.72;;;;;;;-4.21;61.36;100629.03;5073262;28;20072;-54
2022/12/27 02:36:26;;;;;;;7.70;5.15;;;;;;;-4.15;61.59;100607.19;5073251;28;20039;-51
2022/12/27 02:38:56;;;;;;;8.68;4.95;;;;;;;-4.14;60.88;100610.66;5072364;28;20043;-55
2022/12/27 02:53:03;;;;;;;8.05;4.78;;;;;;;-3.95;60.84;100611.41;5072674;28;20129;-52
2022/12/27 02:55:37;;;;;;;6.03;4.40;;;;;;;-4.06;60.38;100599.28;5072640;28;20156;-53
2022/12/27 02:58:23;;;;;;;7.13;5.10;;;;;;;-3.98;61.17;100596.59;5073331;28;20498;-49
2022/12/27 03:04:00;;;;;;;8.25;4.70;;;;;;;-4.15;61.07;100585.38;5072001;28;20024;-53
2022/12/27 03:06:39;;;;;;;6.38;4.13;;;;;;;-4.19;61.54;100585.41;5072214;28;20037;-55
2022/12/27 03:09:07;;;;;;;3.28;2.33;;;;;;;-3.88;60.37;100568.59;5073125;28;20044;-52
2022/12/27 03:17:38;;;;;;;5.35;3.35;;;;;;;-4.12;60.35;100562.72;5066548;28;20368;-55
2022/12/27 03:25:41;;;;;;;6.15;3.75;;;;;;;-4.21;61.27;100529.66;5073195;28;20467;-50
2022/12/27 03:34:30;;;;;;;7.80;4.25;;;;;;;-4.04;61.58;100510.34;5072641;28;20414;-52
2022/12/27 03:39:35;;;;;;;5.05;3.78;;;;;;;-3.83;60.72;100513.63;5072027;28;20028;-56
2022/12/27 03:44:49;;;;;;;5.90;3.90;;;;;;;-4.00;60.80;100500.69;5073348;28;20077;-54
2022/12/27 03:47:28;;;;;;;7.88;4.20;;;;;;;-3.83;61.09;100513.63;5072522;28;20111;-50
2022/12/27 03:50:05;;;;;;;5.70;3.90;;;;;;;-3.89;60.88;100489.22;5072081;28;20033;-56
2022/12/27 03:52:40;;;;;;;6.88;4.00;;;;;;;-3.89;60.89;100488.38;5072008;28;20041;-51
2022/12/27 03:55:07;;;;;;;6.57;4.50;;;;;;;-3.91;61.14;100482.31;5072600;28;20115;-54
2022/12/27 03:57:33;;;;;;;6.10;4.22;;;;;;;-3.83;61.17;100496.16;5072178;28;20042;-52
2022/12/27 03:59:58;;;;;;;7.05;4.40;;;;;;;-3.81;60.83;100480.47;5071466;28;20029;-56
2022/12/27 04:02:23;;;;;;;6.05;4.53;;;;;;;-3.93;61.74;100468.38;5071690;28;20033;-54
2022/12/27 04:04:49;;;;;;;5.72;4.25;;;;;;;-3.78;61.02;100485.66;5072290;28;20036;-54
2022/12/27 04:07:15;;;;;;;6.93;4.47;;;;;;;-3.77;60.84;100471.69;5071582;28;20348;-52
2022/12/27 04:37:01;;;;;;;10.15;4.35;;;;;;;-3.92;60.10;100438.72;5075621;28;20512;-56
2022/12/27 04:39:26;;;;;;;9.27;4.90;;;;;;;-4.10;60.69;100443.25;5075471;28;20033;-54
2022/12/27 04:56:00;;;;;;;8.45;3.80;;;;;;;-4.12;60.35;100386.59;5074914;28;20040;-57
2022/12/27 04:58:26;;;;;;;8.82;4.95;;;;;;;-4.21;61.19;100387.59;5073226;28;20415;-55
2022/12/27 05:03:38;;;;;;;8.43;4.70;;;;;;;-4.20;61.42;100391.94;5074953;28;20033;-56
2022/12/27 05:06:04;;;;;;;8.52;5.05;;;;;;;-4.21;60.93;100396.28;5074954;28;20037;-55
2022/12/27 05:13:59;;;;;;;7.18;4.35;;;;;;;-4.19;61.12;100391.06;5074767;28;20024;-57
2022/12/27 05:16:31;;;;;;;6.93;4.53;;;;;;;-4.11;61.14;100383.09;5074070;28;20330;-56
2022/12/27 05:18:56;;;;;;;8.27;5.63;;;;;;;-4.19;61.83;100389.28;5073985;28;20066;-59
2022/12/27 05:21:22;;;;;;;9.93;5.43;;;;;;;-4.13;61.56;100400.56;5074642;28;20029;-57
2022/12/27 05:26:32;;;;;;;11.55;6.50;;;;;;;-4.14;61.51;100391.88;5073896;28;20028;-58
2022/12/27 05:28:59;;;;;;;9.38;5.80;;;;;;;-4.14;62.23;100368.31;5074814;28;20094;-60
2022/12/27 05:31:27;;;;;;;9.52;6.18;;;;;;;-4.19;62.22;100360.53;5074744;28;20049;-57
2022/12/27 05:33:53;;;;;;;6.68;4.22;;;;;;;-3.93;61.94;100368.97;5074203;28;20412;-58
2022/12/27 05:36:19;;;;;;;9.85;6.32;;;;;;;-4.00;61.80;100367.28;5074163;28;20119;-59
2022/12/27 05:38:44;;;;;;;12.85;6.95;;;;;;;-3.85;61.51;100361.03;5073629;28;20036;-60
2022/12/27 05:41:10;;;;;;;8.13;4.85;;;;;;;-3.98;61.59;100371.63;5073608;28;20028;-58
2022/12/27 05:43:36;;;;;;;10.27;6.80;;;;;;;-4.15;61.43;100350.91;5073407;28;20134;-57
2022/12/27 05:46:10;;;;;;;12.93;6.18;;;;;;;-4.03;61.54;100357.75;5073373;28;20032;-57
2022/12/27 05:48:36;;;;;;;12.70;6.93;;;;;;;-4.12;61.74;100361.34;5074410;28;20032;-58
2022/12/27 05:51:07;;;;;;;12.02;6.60;;;;;;;-4.22;62.48;100344.88;5074689;28;20166;-62
2022/12/27 05:53:32;;;;;;;13.27;7.28;;;;;;;-4.16;62.31;100369.22;5074015;28;20028;-56
2022/12/27 05:55:58;;;;;;;13.10;6.20;;;;;;;-4.08;61.63;100349.94;5074057;28;20409;-54
2022/12/27 05:58:24;;;;;;;8.18;4.43;;;;;;;-4.06;61.94;100360.41;5073098;28;20028;-58
2022/12/27 06:00:50;;;;;;;12.65;6.50;;;;;;;-4.38;62.42;100304.09;5073929;28;20298;-58
2022/12/27 06:03:15;;;;;;;11.73;5.35;;;;;;;-4.07;62.25;100322.06;5072828;28;20051;-58
2022/12/27 06:05:41;;;;;;;10.95;6.30;;;;;;;-4.03;61.69;100349.91;5072861;28;20075;-56
2022/12/27 06:08:08;;;;;;;10.32;6.20;;;;;;;-4.08;62.04;100336.03;5073594;28;20115;-60
2022/12/27 06:10:33;;;;;;;8.45;5.05;;;;;;;-4.02;62.05;100351.63;5073220;28;20468;-58
2022/12/27 06:12:59;;;;;;;12.25;6.40;;;;;;;-4.13;62.77;100366.56;5073680;28;20162;-61
2022/12/27 06:15:25;;;;;;;12.13;6.78;;;;;;;-4.11;62.27;100343.88;5073532;28;20123;-58
2022/12/27 06:17:50;;;;;;;12.18;7.05;;;;;;;-4.13;61.93;100333.44;5073587;28;20029;-61
2022/12/27 06:20:16;;;;;;;12.48;7.22;;;;;;;-4.13;62.67;100328.22;5073935;28;20111;-58
2022/12/27 06:22:42;;;;;;;9.55;5.05;;;;;;;-4.09;61.36;100298.53;5073011;28;20075;-58
2022/12/27 06:25:07;;;;;;;9.35;5.28;;;;;;;-3.91;61.88;100339.28;5073358;28;20020;-58
2022/12/27 06:27:33;;;;;;;9.55;4.85;;;;;;;-3.91;61.73;100336.66;5072452;28;20041;-52
2022/12/27 06:29:59;;;;;;;10.55;6.55;;;;;;;-4.00;61.97;100328.06;5070263;28;20514;-63
2022/12/27 06:32:24;;;;;;;8.88;5.72;;;;;;;-4.16;62.32;100307.34;5072956;28;20059;-59
2022/12/27 06:34:50;;;;;;;11.70;6.57;;;;;;;-3.97;61.95;100320.19;5071930;28;20384;-62
2022/12/27 06:37:16;;;;;;;10.40;6.65;;;;;;;-4.03;62.42;100336.81;5073064;28;20040;-59
2022/12/27 06:39:42;;;;;;;15.38;7.07;;;;;;;-4.07;62.76;100306.38;5073204;28;20066;-60
2022/12/27 06:42:08;;;;;;;7.53;4.97;;;;;;;-4.12;62.52;100316.00;5072940;28;20025;-60
2022/12/27 06:44:33;;;;;;;13.70;7.80;;;;;;;-4.20;63.31;100318.72;5072795;28;20444;-59
2022/12/27 06:46:59;;;;;;;12.93;7.35;;;;;;;-4.41;63.19;100264.94;5072832;28;20086;-62
2022/12/27 06:49:24;;;;;;;13.25;7.35;;;;;;;-4.17;63.27;100310.84;5072458;28;20045;-60
2022/12/27 06:51:50;;;;;;;15.18;7.80;;;;;;;-4.19;63.56;100297.78;5072700;28;20138;-59
2022/12/27 06:54:15;;;;;;;12.77;7.43;;;;;;;-4.18;63.77;100312.56;5072472;28;20033;-62
2022/12/27 06:56:41;;;;;;;10.32;6.15;;;;;;;-4.07;62.62;100293.28;5073154;28;20937;-62
2022/12/27 06:59:07;;;;;;;13.32;6.93;;;;;;;-4.02;62.20;100286.25;5072457;28;20369;-60
2022/12/27 07:01:32;;;;;;;10.55;6.20;;;;;;;-4.11;62.40;100254.97;5072598;28;20060;-60
2022/12/27 07:03:59;;;;;;;13.77;8.07;;;;;;;-3.97;62.13;100284.41;5071685;28;20510;-61
2022/12/27 07:06:27;;;;;;;12.45;7.28;;;;;;;-4.01;62.70;100294.94;5073219;28;20032;-62
2022/12/27 07:08:52;;;;;;;10.63;6.25;;;;;;;-4.07;62.67;100299.38;5072916;28;20063;-64
2022/12/27 07:11:19;;;;;;;15.52;8.85;;;;;;;-4.07;62.86;100299.38;5072121;28;20116;-60
2022/12/27 07:13:47;;;;;;;15.60;8.43;;;;;;;-3.97;62.85;100284.41;5072414;28;20413;-58
2022/12/27 07:16:15;;;;;;;13.20;7.28;;;;;;;-3.91;63.03;100281.72;5072749;28;20032;-63
2022/12/27 07:18:42;;;;;;;14.82;8.55;;;;;;;-4.03;63.33;100284.50;5072581;28;20112;-58
2022/12/27 07:21:13;;;;;;;11.70;7.20;;;;;;;-4.07;63.25;100280.22;5072255;28;20462;-60
2022/12/27 07:23:38;;;;;;;14.65;8.82;;;;;;;-4.10;63.67;100275.88;5071527;28;20028;-58
2022/12/27 07:26:10;;;;;;;11.82;7.13;;;;;;;-4.05;63.99;100265.34;5072603;28;20043;-61
2022/12/27 07:28:37;;;;;;;15.20;8.90;;;;;;;-4.01;63.26;100268.78;5072315;28;20105;-60
2022/12/27 07:31:16;;;;;;;15.68;9.10;;;;;;;-4.05;64.08;100247.06;5071916;28;20062;-60
2022/12/27 07:33:42;;;;;;;13.60;7.13;;;;;;;-3.71;63.22;100254.41;5072171;28;20329;-64
2022/12/27 07:36:16;;;;;;;12.27;7.60;;;;;;;-3.85;63.14;100264.22;5072622;28;20444;-62
2022/12/27 07:38:41;;;;;;;16.60;8.90;;;;;;;-3.94;64.00;100250.38;5071523;28;20082;-62
2022/12/27 07:41:07;;;;;;;15.45;6.78;;;;;;;-3.82;63.88;100243.25;5068100;28;20044;-62
2022/12/27 07:43:34;;;;;;;13.65;8.32;;;;;;;-3.76;63.82;100251.84;5070826;28;20036;-62
2022/12/27 07:46:20;;;;;;;12.70;7.10;;;;;;;-3.66;63.83;100242.09;5072031;28;20035;-62
2022/12/27 07:48:46;;;;;;;15.02;8.40;;;;;;;-3.69;63.57;100238.69;5069176;28;20450;-55
2022/12/27 07:51:13;;;;;;;11.55;6.35;;;;;;;-3.64;63.20;100232.47;5068878;28;20032;-62
2022/12/27 07:53:39;;;;;;;13.73;8.15;;;;;;;-3.73;63.73;100216.09;5071450;28;20054;-60
2022/12/27 07:56:10;;;;;;;16.00;8.57;;;;;;;-3.74;64.53;100257.06;5067047;28;20036;-59
2022/12/27 07:58:40;;;;;;;16.27;8.13;;;;;;;-3.74;64.35;100233.53;5071278;28;20210;-59
2022/12/27 08:01:07;;;;;;;9.48;5.93;;;;;;;-3.55;63.73;100236.72;5070761;28;20338;-62
2022/12/27 08:03:33;;;;;;;14.35;7.65;;;;;;;-3.65;63.43;100222.91;5075631;28;20032;-57
2022/12/27 08:05:59;;;;;;;12.77;8.23;;;;;;;-3.78;63.85;100219.59;5075294;28;20029;-60
2022/12/27 08:08:35;;;;;;;9.93;7.38;;;;;;;-3.66;63.91;100209.84;5074741;28;20029;-63
2022/12/27 08:11:01;;;;;;;11.90;8.13;;;;;;;-3.81;63.54;100203.97;5069530;28;20025;-57
2022/12/27 08:13:26;;;;;;;10.00;6.93;;;;;;;-3.78;63.87;100195.22;5055342;28;20035;-62
2022/12/27 08:15:52;;;;;;;13.88;8.55;;;;;;;-3.86;63.92;100184.88;5073846;28;20042;-62
2022/12/27 08:18:18;;;;;;;13.20;7.53;;;;;;;-3.68;63.29;100188.94;5075356;28;20028;-57
2022/12/27 08:20:43;;;;;;;14.38;8.60;;;;;;;-3.73;63.92;100196.00;5075412;28;20035;-59
2022/12/27 08:23:09;;;;;;;12.00;7.82;;;;;;;-3.73;64.42;100179.44;5074214;28;20032;-60
2022/12/27 08:25:34;;;;;;;14.35;7.25;;;;;;;-3.46;62.81;100184.22;5074767;28;20086;-58
2022/12/27 08:28:09;;;;;;;8.60;4.60;;;;;;;-3.28;62.36;100170.84;5075285;28;20074;-61
2022/12/27 08:30:35;;;;;;;13.25;7.80;;;;;;;-3.53;63.40;100166.88;5073813;28;20052;-60
2022/12/27 08:33:03;;;;;;;14.23;8.38;;;;;;;-3.66;63.54;100184.53;5075044;28;20037;-60
2022/12/27 08:35:29;;;;;;;18.35;8.82;;;;;;;-3.66;63.88;100174.06;5073917;28;20028;-62
2022/12/27 08:37:54;;;;;;;14.50;8.43;;;;;;;-3.77;64.19;100169.00;5075332;28;20081;-60
2022/12/27 08:40:20;;;;;;;12.00;7.47;;;;;;;-3.79;64.67;100185.63;5074951;28;20465;-60
2022/12/27 08:42:46;;;;;;;16.83;9.80;;;;;;;-3.74;64.60;100175.97;5073998;28;20024;-60
2022/12/27 08:45:11;;;;;;;15.85;9.77;;;;;;;-3.77;64.81;100155.91;5073671;28;20039;-61
2022/12/27 08:47:37;;;;;;;13.43;6.18;;;;;;;-3.64;64.22;100148.72;5073488;28;20058;-60
2022/12/27 08:50:03;;;;;;;14.23;8.30;;;;;;;-3.60;64.42;100144.31;5072501;28;20025;-61
2022/12/27 08:52:29;;;;;;;16.35;9.00;;;;;;;-3.67;64.96;100153.19;5074080;28;20387;-54
2022/12/27 08:54:54;;;;;;;13.70;8.90;;;;;;;-3.60;64.62;100139.09;5073861;28;20033;-60
2022/12/27 08:57:19;;;;;;;13.48;8.40;;;;;;;-3.58;64.16;100124.22;5067582;28;20024;-57
2022/12/27 08:59:45;;;;;;;14.85;9.07;;;;;;;-3.60;64.48;100123.38;5074268;28;20125;-58
2022/12/27 09:02:10;;;;;;;11.60;7.55;;;;;;;-3.37;63.83;100122.97;5074400;28;20032;-59
2022/12/27 09:04:36;;;;;;;16.92;8.77;;;;;;;-3.50;64.67;100129.31;5074045;28;20044;-58
2022/12/27 09:07:02;;;;;;;18.85;9.30;;;;;;;-3.32;64.27;100123.75;5074455;28;20032;-59
2022/12/27 09:09:27;;;;;;;15.30;9.60;;;;;;;-3.45;64.65;100119.63;5074151;28;20455;-59
2022/12/27 09:11:53;;;;;;;17.27;9.95;;;;;;;-3.35;65.04;100122.94;5074388;28;20040;-58
2022/12/27 09:14:20;;;;;;;16.83;9.10;;;;;;;-3.17;64.25;100130.47;5073821;28;20025;-56
2022/12/27 09:16:45;;;;;;;11.20;6.72;;;;;;;-3.23;63.67;100082.56;5073870;28;20052;-57
2022/12/27 09:19:11;;;;;;;12.35;7.20;;;;;;;-3.26;64.54;100114.91;5074526;28;20071;-62
2022/12/27 09:21:39;;;;;;;16.02;10.32;;;;;;;-3.24;64.02;100101.78;5074391;28;20033;-62
2022/12/27 09:24:05;;;;;;;14.98;10.02;;;;;;;-3.39;64.63;100085.47;5074104;28;20082;-58
2022/12/27 09:26:30;;;;;;;15.40;8.63;;;;;;;-3.25;64.59;100121.91;5070415;28;20410;-59
2022/12/27 09:28:57;;;;;;;13.73;8.77;;;;;;;-3.25;64.25;100113.16;5054272;28;20043;-55
2022/12/27 09:31:23;;;;;;;7.88;4.45;;;;;;;-2.99;63.34;100106.53;5054439;28;20095;-57
2022/12/27 09:33:49;;;;;;;12.50;7.88;;;;;;;-3.14;63.73;100111.19;5060946;28;20464;-59
2022/12/27 09:36:20;;;;;;;15.05;9.70;;;;;;;-3.38;64.14;100095.03;5073679;28;20124;-55
2022/12/27 09:38:46;;;;;;;17.77;9.45;;;;;;;-3.52;65.56;100095.31;5073769;28;20051;-58
2022/12/27 09:41:18;;;;;;;13.75;7.82;;;;;;;-3.49;64.95;100083.94;5074111;28;20050;-59
2022/12/27 09:44:09;;;;;;;13.48;7.90;;;;;;;-3.31;64.65;100077.47;5054006;28;20110;-61
2022/12/27 09:46:47;;;;;;;13.55;7.82;;;;;;;-3.27;64.45;100086.13;5053277;28;20048;-62
2022/12/27 09:49:28;;;;;;;12.05;7.45;;;;;;;-3.27;64.63;100099.22;5071959;28;20031;-58
2022/12/27 09:52:03;;;;;;;13.68;8.25;;;;;;;-3.37;64.63;100086.34;5073020;28;20496;-60
2022/12/27 09:54:44;;;;;;;15.63;7.60;;;;;;;-3.41;64.92;100074.16;5073700;28;20020;-59
2022/12/27 09:57:23;;;;;;;11.07;6.72;;;;;;;-3.39;65.62;100075.00;5073232;28;20074;-60
2022/12/27 09:59:56;;;;;;;12.07;6.93;;;;;;;-3.32;64.42;100063.53;5073372;28;20038;-59
2022/12/27 10:02:24;;;;;;;11.82;7.95;;;;;;;-3.41;65.24;100066.31;5073597;28;20039;-56
2022/12/27 10:04:51;;;;;;;15.65;8.43;;;;;;;-3.41;64.83;100044.53;5073945;28;20028;-57
2022/12/27 10:07:36;;;;;;;17.77;9.15;;;;;;;-3.34;64.93;100041.75;5073731;28;20036;-57
2022/12/27 10:10:13;;;;;;;11.98;8.00;;;;;;;-3.33;65.37;100048.72;5073389;28;20028;-56
2022/12/27 10:12:53;;;;;;;14.73;8.30;;;;;;;-3.42;65.21;100022.69;5064512;28;20048;-57
2022/12/27 10:15:47;;;;;;;10.55;6.22;;;;;;;-2.99;64.76;100043.66;5053851;28;20033;-54
2022/12/27 10:18:33;;;;;;;13.27;6.50;;;;;;;-3.07;65.29;100049.06;5053343;28;20096;-58
2022/12/27 10:21:24;;;;;;;17.42;10.15;;;;;;;-3.14;64.94;100045.69;5072403;28;20464;-60
2022/12/27 10:24:01;;;;;;;19.92;9.63;;;;;;;-3.33;65.80;100030.38;5073102;28;20036;-55
2022/12/27 10:26:27;;;;;;;17.08;9.63;;;;;;;-3.24;65.94;100041.56;5073163;28;20062;-55
2022/12/27 10:29:00;;;;;;;17.33;9.27;;;;;;;-3.43;65.92;100002.66;5055174;28;20029;-63
2022/12/27 10:31:28;;;;;;;19.17;10.20;;;;;;;-3.23;65.61;100044.16;5052699;28;20480;-65
2022/12/27 10:33:53;;;;;;;22.15;11.50;;;;;;;-3.17;66.01;100017.84;5053156;28;20044;-66
2022/12/27 10:36:30;;;;;;;19.73;11.00;;;;;;;-3.12;65.94;100019.50;5053578;28;20078;-63
2022/12/27 10:38:56;;;;;;;16.25;10.52;;;;;;;-3.15;66.24;100015.16;5072594;28;20402;-63
2022/12/27 10:41:56;;;;;;;20.92;11.68;;;;;;;-3.01;66.24;100006.16;5070451;28;20120;-63
2022/12/27 10:44:21;;;;;;;20.52;11.90;;;;;;;-3.08;65.53;100003.69;5072366;28;20025;-64
2022/12/27 10:46:54;;;;;;;19.60;11.27;;;;;;;-2.95;65.49;99999.03;5072224;28;20201;-64
2022/12/27 10:49:25;;;;;;;21.92;12.70;;;;;;;-3.03;66.12;99978.25;5072487;28;20093;-65
2022/12/27 10:51:54;;;;;;;19.60;12.20;;;;;;;-3.05;66.12;99974.81;5071617;28;20130;-61
2022/12/27 10:54:25;;;;;;;20.42;12.32;;;;;;;-3.09;66.76;99977.50;5072962;28;20039;-56
2022/12/27 10:56:51;;;;;;;21.85;13.00;;;;;;;-3.26;67.06;99930.75;5073383;28;20029;-61
2022/12/27 10:59:17;;;;;;;20.35;12.05;;;;;;;-2.76;65.62;99964.56;5060135;28;20090;-62
2022/12/27 11:02:01;;;;;;;19.92;11.57;;;;;;;-2.83;65.79;99969.09;5071765;28;20040;-63
2022/12/27 11:04:28;;;;;;;20.60;12.18;;;;;;;-2.79;66.23;99962.88;5072071;28;20036;-64
2022/12/27 11:07:00;;;;;;;19.50;12.77;;;;;;;-2.78;65.99;99967.22;5073463;28;20086;-65
2022/12/27 11:09:29;;;;;;;20.80;12.60;;;;;;;-2.84;65.93;99956.88;5071921;28;20071;-64
2022/12/27 11:12:20;;;;;;;22.95;12.88;;;;;;;-2.75;66.16;99967.13;5067630;28;20356;-64
2022/12/27 11:14:59;;;;;;;21.08;11.30;;;;;;;-2.77;66.43;99940.09;5072346;28;20025;-63
2022/12/27 11:17:45;;;;;;;22.27;11.90;;;;;;;-2.68;66.12;99939.03;5072302;28;20041;-64
2022/12/27 11:20:11;;;;;;;19.83;12.52;;;;;;;-2.79;66.01;99934.03;5104694;28;20183;-63
2022/12/27 11:22:47;;;;;;;24.50;14.00;;;;;;;-2.72;66.40;99939.13;5071561;28;20085;-63
2022/12/27 11:25:14;;;;;;;22.33;12.63;;;;;;;-2.85;66.71;99938.56;5071237;28;20424;-63
2022/12/27 11:27:45;;;;;;;21.70;13.68;;;;;;;-2.95;66.98;99917.81;5070819;28;20043;-61
2022/12/27 11:30:33;;;;;;;25.27;13.10;;;;;;;-2.81;67.05;99935.84;5071704;28;20048;-62
2022/12/27 11:33:04;;;;;;;26.15;13.88;;;;;;;-2.81;67.33;99935.84;5070958;28;20036;-57
2022/12/27 11:35:32;;;;;;;26.00;13.88;;;;;;;-2.74;66.97;99920.84;5070838;28;20063;-61
2022/12/27 11:37:58;;;;;;;24.27;14.13;;;;;;;-2.74;67.82;99926.91;5070566;28;20059;-58
2022/12/27 11:40:33;;;;;;;24.17;13.68;;;;;;;-2.71;67.36;99914.63;5071156;28;20064;-62
2022/12/27 11:43:14;;;;;;;26.52;15.70;;;;;;;-2.63;66.92;99908.31;5067710;28;20086;-59
2022/12/27 11:45:48;;;;;;;28.35;14.13;;;;;;;-2.54;66.97;99925.56;5051877;28;20460;-60
2022/12/27 11:48:48;;;;;;;29.92;16.75;;;;;;;-2.62;66.83;99898.72;5052160;28;20087;-61
2022/12/27 11:51:56;;;;;;;31.55;16.55;;;;;;;-2.57;66.86;99890.69;5050234;28;20060;-60
2022/12/27 11:54:34;;;;;;;29.52;15.60;;;;;;;-2.60;66.87;99896.91;5050850;28;20037;-63
2022/12/27 11:57:39;;;;;;;26.90;15.25;;;;;;;-2.70;67.47;99884.91;5051746;28;20025;-62
2022/12/27 12:00:19;;;;;;;32.20;17.23;;;;;;;-2.78;67.90;99888.59;5070644;28;20055;-62
2022/12/27 12:03:12;;;;;;;30.35;15.95;;;;;;;-2.64;67.35;99882.16;5070924;28;20032;-63
2022/12/27 12:05:40;;;;;;;29.92;15.48;;;;;;;-2.61;67.66;99901.28;5071594;28;20036;-63
2022/12/27 12:08:09;;;;;;;34.42;17.52;;;;;;;-2.56;68.06;99887.19;5071261;28;20033;-64
2022/12/27 12:10:46;;;;;;;34.25;17.70;;;;;;;-2.58;67.45;99884.63;5069044;28;20037;-58
2022/12/27 12:13:34;;;;;;;32.40;16.52;;;;;;;-2.57;67.96;99886.34;5068341;28;20035;-58
2022/12/27 12:16:09;;;;;;;30.58;18.08;;;;;;;-2.52;67.52;99878.38;5050369;28;20059;-58
2022/12/27 12:19:02;;;;;;;34.37;17.30;;;;;;;-2.48;67.91;99880.84;5050630;28;20025;-59
2022/12/27 12:21:52;;;;;;;26.15;14.00;;;;;;;-2.36;67.73;99878.81;5050586;28;20666;-58
2022/12/27 12:24:41;;;;;;;31.92;17.88;;;;;;;-2.50;68.10;99866.91;5064074;28;20426;-60
2022/12/27 12:27:09;;;;;;;37.75;18.38;;;;;;;-2.40;67.98;99875.41;5070294;28;20048;-59
2022/12/27 12:29:46;;;;;;;33.25;18.40;;;;;;;-2.56;68.41;99856.59;5057603;28;20352;-57
2022/12/27 12:32:31;;;;;;;27.83;15.10;;;;;;;-2.41;68.14;99855.34;5059880;28;20040;-60
2022/12/27 12:35:11;;;;;;;26.55;13.38;;;;;;;-2.31;67.99;99851.53;5070464;28;20043;-62
2022/12/27 12:38:04;;;;;;;30.40;16.10;;;;;;;-2.25;67.79;99840.03;5071255;28;20105;-60
2022/12/27 12:40:54;;;;;;;29.42;13.90;;;;;;;-2.47;67.66;99843.25;5070256;28;20033;-60
2022/12/27 12:43:38;;;;;;;33.35;17.17;;;;;;;-2.27;67.23;99848.88;5070503;28;20051;-62
2022/12/27 12:46:32;;;;;;;30.50;15.40;;;;;;;-2.34;67.60;99840.31;5071050;28;20037;-59
2022/12/27 12:49:48;;;;;;;32.88;16.40;;;;;;;-2.22;68.45;99841.72;5073881;28;20086;-61
2022/12/27 12:52:28;;;;;;;30.95;14.63;;;;;;;-2.33;68.09;99829.75;5065786;28;20123;-59
2022/12/27 12:55:16;;;;;;;24.23;13.80;;;;;;;-2.26;68.09;99821.75;5074811;28;20037;-59
2022/12/27 12:57:44;;;;;;;27.75;14.40;;;;;;;-2.39;68.79;99836.94;5074028;28;20119;-60
2022/12/27 13:00:11;;;;;;;31.95;17.58;;;;;;;-2.37;68.93;99816.78;5059521;28;20083;-55
2022/12/27 13:02:42;;;;;;;30.23;17.33;;;;;;;-2.47;69.86;99817.03;5058730;28;20101;-58
2022/12/27 13:05:29;;;;;;;19.85;11.55;;;;;;;-2.16;68.15;99815.31;5074367;28;20041;-55
2022/12/27 13:08:13;;;;;;;27.35;13.63;;;;;;;-2.15;67.95;99808.31;5074257;28;20153;-59
2022/12/27 13:11:02;;;;;;;27.88;16.55;;;;;;;-2.26;68.77;99813.88;5073171;28;20024;-60
2022/12/27 13:13:34;;;;;;;20.25;10.65;;;;;;;-2.23;69.01;99814.63;5074398;28;20109;-59